createdAt,value
2022-09-12T00:01:26.727Z,49.35
2022-09-12T00:04:01.770Z,49.67
2022-09-12T00:06:35.800Z,45.63
2022-09-12T00:11:37.138Z,48.47
2022-09-12T00:14:05.893Z,55.70
2022-09-12T00:16:38.523Z,47.53
2022-09-12T00:19:07.918Z,52.55
2022-09-12T00:21:37.437Z,47.45
2022-09-12T00:24:06.328Z,57.97
2022-09-12T00:26:37.146Z,56.40
2022-09-12T00:29:05.259Z,54.03
2022-09-12T00:31:33.652Z,53.33
2022-09-12T00:34:04.133Z,60.17
2022-09-12T00:36:32.606Z,60.45
2022-09-12T00:39:05.369Z,51.67
2022-09-12T00:41:41.141Z,70.05
2022-09-12T00:44:11.893Z,56.00
2022-09-12T00:47:06.827Z,66.10
2022-09-12T00:49:59.642Z,57.45
2022-09-12T00:53:00.834Z,51.40
2022-09-12T00:55:41.248Z,49.47
2022-09-12T00:58:15.800Z,52.05
2022-09-12T01:00:47.043Z,72.38
2022-09-12T01:03:22.111Z,58.35
2022-09-12T01:06:16.463Z,59.90
2022-09-12T01:08:45.357Z,50.83
2022-09-12T01:11:14.249Z,48.95
2022-09-12T01:13:43.053Z,65.20
2022-09-12T01:16:11.129Z,57.22
2022-09-12T01:18:44.893Z,62.97
2022-09-12T01:21:37.058Z,68.97
2022-09-12T01:24:33.390Z,57.28
2022-09-12T01:27:22.701Z,63.88
2022-09-12T01:29:50.654Z,58.97
2022-09-12T01:32:21.721Z,55.80
2022-09-12T01:35:17.066Z,54.35
2022-09-12T01:37:54.257Z,54.70
2022-09-12T01:40:39.115Z,60.97
2022-09-12T01:43:39.004Z,52.33
2022-09-12T01:46:15.885Z,56.60
2022-09-12T01:48:51.773Z,82.55
2022-09-12T01:51:48.325Z,70.00
2022-09-12T01:54:32.476Z,54.67
2022-09-12T01:57:10.722Z,71.28
2022-09-12T01:59:46.204Z,52.60
2022-09-12T02:02:19.265Z,56.45
2022-09-12T02:05:13.905Z,63.07
2022-09-12T02:07:57.860Z,56.67
2022-09-12T02:10:32.542Z,65.18
2022-09-12T02:13:19.733Z,62.65
2022-09-12T02:15:55.407Z,68.63
2022-09-12T02:18:26.367Z,59.95
2022-09-12T02:20:55.544Z,63.05
2022-09-12T02:23:29.682Z,74.10
2022-09-12T02:26:07.332Z,59.65
2022-09-12T02:28:40.140Z,72.97
2022-09-12T02:31:26.772Z,58.47
2022-09-12T02:34:09.765Z,72.13
2022-09-12T02:36:40.295Z,75.13
2022-09-12T02:39:08.350Z,63.22
2022-09-12T02:41:36.859Z,57.80
2022-09-12T02:44:06.455Z,63.58
2022-09-12T02:46:41.805Z,65.95
2022-09-12T02:49:12.476Z,69.65
2022-09-12T02:51:46.369Z,68.95
2022-09-12T02:54:16.412Z,63.92
2022-09-12T02:56:46.388Z,67.68
2022-09-12T02:59:19.585Z,64.50
2022-09-12T03:02:04.817Z,70.20
2022-09-12T03:04:44.817Z,76.72
2022-09-12T03:07:41.263Z,63.47
2022-09-12T03:10:34.152Z,69.13
2022-09-12T03:13:46.105Z,67.20
2022-09-12T03:16:35.166Z,71.45
2022-09-12T03:19:43.869Z,97.53
2022-09-12T03:22:24.543Z,73.93
2022-09-12T03:24:55.665Z,74.40
2022-09-12T03:27:30.944Z,76.57
2022-09-12T03:29:59.350Z,74.57
2022-09-12T03:32:51.368Z,81.57
2022-09-12T03:35:23.170Z,72.85
2022-09-12T03:37:53.489Z,69.38
2022-09-12T03:40:26.440Z,82.55
2022-09-12T03:42:56.832Z,77.30
2022-09-12T03:45:24.858Z,84.80
2022-09-12T03:47:55.317Z,86.22
2022-09-12T03:50:25.728Z,87.57
2022-09-12T03:52:53.884Z,87.95
2022-09-12T03:55:21.921Z,77.00
2022-09-12T03:57:53.077Z,78.30
2022-09-12T04:00:21.171Z,75.43
2022-09-12T04:02:54.950Z,78.55
2022-09-12T04:05:22.992Z,77.68
2022-09-12T04:07:50.997Z,86.97
2022-09-12T04:10:22.310Z,76.15
2022-09-12T04:12:50.387Z,89.68
2022-09-12T04:15:18.479Z,89.65
2022-09-12T04:17:49.230Z,91.45
2022-09-12T04:20:17.297Z,79.57
2022-09-12T04:22:45.369Z,81.75
2022-09-12T04:25:16.232Z,88.93
2022-09-12T04:27:44.287Z,76.80
2022-09-12T04:30:12.830Z,82.13
2022-09-12T04:32:43.771Z,69.47
2022-09-12T04:35:11.799Z,71.78
2022-09-12T04:37:39.935Z,77.13
2022-09-12T04:40:08.560Z,76.63
2022-09-12T04:42:36.639Z,88.88
2022-09-12T04:45:05.025Z,87.43
2022-09-12T04:47:33.025Z,81.57
2022-09-12T04:50:01.040Z,96.00
2022-09-12T04:52:31.687Z,103.93
2022-09-12T04:54:59.712Z,100.18
2022-09-12T04:57:30.283Z,106.40
2022-09-12T05:00:05.151Z,99.00
2022-09-12T05:02:35.781Z,99.97
2022-09-12T05:05:04.480Z,102.50
2022-09-12T05:07:35.856Z,91.97
2022-09-12T05:10:04.824Z,94.18
2022-09-12T05:12:35.244Z,81.80
2022-09-12T05:15:06.222Z,84.43
2022-09-12T05:17:36.541Z,84.75
2022-09-12T05:20:07.206Z,92.07
2022-09-12T05:22:35.295Z,80.13
2022-09-12T05:25:05.873Z,91.50
2022-09-12T05:27:33.890Z,91.50
2022-09-12T05:30:01.958Z,103.05
2022-09-12T05:32:32.861Z,90.07
2022-09-12T05:35:00.908Z,101.35
2022-09-12T05:37:31.841Z,104.32
2022-09-12T05:40:04.037Z,108.03
2022-09-12T05:42:32.134Z,99.45
2022-09-12T05:45:02.764Z,103.50
2022-09-12T05:47:30.860Z,91.72
2022-09-12T05:49:58.833Z,94.45
2022-09-12T05:52:27.545Z,92.93
2022-09-12T05:54:55.584Z,97.68
2022-09-12T05:57:23.677Z,92.78
2022-09-12T05:59:54.266Z,85.85
2022-09-12T06:02:22.446Z,93.45
2022-09-12T06:04:50.471Z,93.57
2022-09-12T06:07:20.747Z,84.13
2022-09-12T06:09:48.843Z,97.13
2022-09-12T06:12:16.822Z,98.63
2022-09-12T06:14:44.860Z,92.95
2022-09-12T06:17:12.886Z,86.43
2022-09-12T06:19:41.018Z,95.68
2022-09-12T06:22:09.022Z,108.80
2022-09-12T06:24:37.056Z,97.00
2022-09-12T06:27:05.338Z,96.05
2022-09-12T06:29:36.233Z,109.00
2022-09-12T06:32:04.319Z,96.68
2022-09-12T06:34:33.199Z,94.47
2022-09-12T06:37:01.180Z,92.80
2022-09-12T06:39:34.602Z,98.13
2022-09-12T06:42:02.625Z,95.35
2022-09-12T06:44:30.645Z,96.22
2022-09-12T06:46:58.977Z,92.53
2022-09-12T06:49:29.287Z,87.18
2022-09-12T06:51:57.347Z,102.30
2022-09-12T06:54:25.408Z,83.10
2022-09-12T06:56:53.432Z,98.63
2022-09-12T06:59:21.417Z,91.80
2022-09-12T07:01:49.498Z,101.97
2022-09-12T07:04:17.532Z,85.20
2022-09-12T07:06:45.563Z,93.40
2022-09-12T07:09:16.854Z,89.18
2022-09-12T07:11:46.276Z,86.85
2022-09-12T07:14:15.305Z,91.50
2022-09-12T07:16:46.265Z,89.60
2022-09-12T07:19:14.285Z,92.88
2022-09-12T07:21:42.362Z,78.90
2022-09-12T07:24:11.473Z,89.05
2022-09-12T07:26:40.740Z,93.43
2022-09-12T07:32:02.744Z,69.00
2022-09-12T07:34:30.817Z,96.10
2022-09-12T07:37:01.457Z,99.93
2022-09-12T07:39:32.148Z,104.57
2022-09-12T07:42:00.150Z,98.38
2022-09-12T07:44:31.155Z,97.18
2022-09-12T07:46:59.523Z,114.40
2022-09-12T07:49:31.198Z,103.15
2022-09-12T07:51:59.534Z,117.22
2022-09-12T07:54:27.542Z,113.60
2022-09-12T07:56:55.604Z,103.13
2022-09-12T07:59:50.851Z,109.88
2022-09-12T08:02:18.102Z,110.40
2022-09-12T08:04:46.345Z,107.82
2022-09-12T08:07:14.321Z,114.72
2022-09-12T08:09:42.421Z,105.88
2022-09-12T08:12:10.472Z,120.30
2022-09-12T08:14:41.164Z,105.18
2022-09-12T08:17:14.292Z,111.40
2022-09-12T08:19:42.323Z,113.43
2022-09-12T08:22:13.950Z,99.53
2022-09-12T08:24:44.590Z,115.55
2022-09-12T08:27:12.574Z,104.65
2022-09-12T08:29:43.095Z,96.43
2022-09-12T08:32:11.189Z,101.57
2022-09-12T08:34:44.307Z,107.10
2022-09-12T08:37:12.603Z,118.90
2022-09-12T08:39:43.076Z,96.55
2022-09-12T08:42:22.228Z,113.93
2022-09-12T08:45:08.015Z,107.20
2022-09-12T08:47:40.902Z,107.93
2022-09-12T08:50:11.787Z,104.13
2022-09-12T08:53:10.966Z,90.88
2022-09-12T08:55:43.758Z,92.57
2022-09-12T08:58:20.389Z,100.82
2022-09-12T09:00:58.417Z,99.63
2022-09-12T09:04:07.408Z,107.70
2022-09-12T09:06:58.872Z,97.78
2022-09-12T09:09:54.052Z,119.72
2022-09-12T09:12:40.420Z,104.75
2022-09-12T09:15:23.376Z,124.57
2022-09-12T09:18:11.981Z,104.97
2022-09-12T09:20:39.930Z,102.60
2022-09-12T09:23:32.004Z,102.68
2022-09-12T09:26:06.135Z,114.55
2022-09-12T09:28:49.201Z,119.50
2022-09-12T09:31:20.665Z,100.30
2022-09-12T09:33:56.181Z,105.32
2022-09-12T09:37:00.979Z,123.63
2022-09-12T09:39:43.063Z,114.05
2022-09-12T09:42:23.805Z,103.40
2022-09-12T09:44:58.657Z,110.35
2022-09-12T09:47:29.123Z,114.13
2022-09-12T09:49:57.180Z,103.32
2022-09-12T09:52:31.632Z,111.63
2022-09-12T09:55:02.681Z,116.78
2022-09-12T09:57:37.960Z,104.22
2022-09-12T10:00:29.951Z,110.85
2022-09-12T10:03:13.483Z,109.85
2022-09-12T10:05:52.568Z,131.43
2022-09-12T10:08:35.645Z,113.35
2022-09-12T10:11:19.481Z,111.43
2022-09-12T10:13:58.768Z,120.55
2022-09-12T10:16:48.751Z,124.97
2022-09-12T10:19:34.416Z,110.07
2022-09-12T10:22:07.073Z,118.20
2022-09-12T10:24:43.509Z,107.97
2022-09-12T10:27:14.260Z,110.30
2022-09-12T10:30:02.538Z,119.35
2022-09-12T10:32:38.918Z,113.75
2022-09-12T10:35:19.219Z,113.53
2022-09-12T10:37:55.508Z,115.47
2022-09-12T10:40:29.883Z,118.13
2022-09-12T10:43:00.409Z,113.45
2022-09-12T10:45:36.693Z,121.93
2022-09-12T10:48:26.129Z,124.30
2022-09-12T10:50:57.512Z,121.57
2022-09-12T10:53:34.710Z,125.53
2022-09-12T10:56:19.543Z,132.48
2022-09-12T10:59:10.087Z,135.55
2022-09-12T11:02:06.107Z,139.40
2022-09-12T11:04:54.701Z,123.78
2022-09-12T11:07:48.578Z,120.45
2022-09-12T11:10:49.787Z,118.47
2022-09-12T11:13:35.888Z,124.22
2022-09-12T11:16:24.106Z,133.95
2022-09-12T11:19:26.168Z,125.55
2022-09-12T11:22:12.166Z,125.45
2022-09-12T11:25:10.496Z,127.68
2022-09-12T11:27:52.424Z,133.45
2022-09-12T11:30:20.671Z,130.90
2022-09-12T11:33:03.221Z,144.02
2022-09-12T11:35:32.524Z,139.88
2022-09-12T11:38:29.862Z,147.43
2022-09-12T11:41:08.613Z,143.25
2022-09-12T11:44:17.630Z,145.65
2022-09-12T11:46:51.112Z,145.82
2022-09-12T11:49:36.014Z,129.85
2022-09-12T11:52:18.052Z,144.38
2022-09-12T11:55:12.534Z,140.73
2022-09-12T11:57:49.480Z,152.40
2022-09-12T12:00:23.995Z,153.40
2022-09-12T12:03:10.245Z,159.65
2022-09-12T12:05:48.986Z,153.93
2022-09-12T12:08:20.149Z,136.75
2022-09-12T12:11:02.558Z,142.80
2022-09-12T12:13:37.863Z,142.13
2022-09-12T12:16:27.868Z,151.93
2022-09-12T12:18:59.416Z,149.15
2022-09-12T12:21:34.446Z,143.82
2022-09-12T12:24:13.407Z,145.18
2022-09-12T12:26:43.164Z,132.93
2022-09-12T12:29:12.569Z,149.10
2022-09-12T12:32:04.952Z,138.05
2022-09-12T12:34:38.608Z,161.05
2022-09-12T12:37:22.582Z,162.10
2022-09-12T12:39:50.633Z,147.98
2022-09-12T12:42:34.166Z,161.48
2022-09-12T12:45:10.700Z,154.83
2022-09-12T12:47:54.046Z,161.02
2022-09-12T12:50:25.403Z,149.73
2022-09-12T12:52:57.783Z,164.55
2022-09-12T12:55:27.390Z,147.30
2022-09-12T12:57:57.457Z,142.77
2022-09-12T13:00:25.457Z,145.10
2022-09-12T13:02:57.484Z,140.85
2022-09-12T13:05:31.372Z,141.88
2022-09-12T13:08:10.671Z,146.38
2022-09-12T13:10:39.637Z,163.02
2022-09-12T13:13:09.217Z,153.68
2022-09-12T13:15:37.934Z,147.15
2022-09-12T13:18:11.676Z,144.95
2022-09-12T13:20:52.960Z,149.25
2022-09-12T13:23:31.843Z,153.30
2022-09-12T13:26:05.286Z,144.98
2022-09-12T13:28:34.134Z,223.70
2022-09-12T13:31:08.006Z,239.65
2022-09-12T13:33:42.740Z,204.90
2022-09-12T13:36:31.428Z,170.02
2022-09-12T13:39:12.341Z,177.00
2022-09-12T13:42:08.650Z,164.75
2022-09-12T13:44:49.328Z,153.00
2022-09-12T13:47:24.788Z,160.70
2022-09-12T13:49:59.009Z,150.40
2022-09-12T13:52:32.385Z,165.52
2022-09-12T13:55:07.457Z,142.02
2022-09-12T13:57:39.367Z,154.68
2022-09-12T14:00:19.302Z,164.73
2022-09-12T14:02:50.011Z,152.50
2022-09-12T14:05:25.594Z,154.38
2022-09-12T14:07:57.953Z,150.52
2022-09-12T14:10:52.496Z,149.15
2022-09-12T14:13:26.063Z,185.50
2022-09-12T14:15:56.749Z,161.38
2022-09-12T14:18:31.518Z,168.75
2022-09-12T14:21:16.956Z,156.27
2022-09-12T14:23:49.037Z,154.05
2022-09-12T14:26:17.683Z,149.48
2022-09-12T14:28:47.219Z,146.32
2022-09-12T14:31:15.403Z,157.30
2022-09-12T14:33:54.260Z,160.00
2022-09-12T14:36:24.575Z,144.45
2022-09-12T14:39:00.342Z,140.75
2022-09-12T14:41:42.371Z,150.48
2022-09-12T14:44:21.984Z,145.40
2022-09-12T14:46:51.062Z,155.20
2022-09-12T14:49:31.393Z,149.73
2022-09-12T14:52:02.376Z,149.48
2022-09-12T14:54:30.392Z,167.70
2022-09-12T14:57:03.987Z,146.63
2022-09-12T14:59:34.687Z,168.60
2022-09-12T15:02:21.740Z,145.93
2022-09-12T15:04:56.106Z,151.57
2022-09-12T15:07:37.346Z,156.30
2022-09-12T15:10:14.585Z,160.70
2022-09-12T15:12:42.657Z,142.00
2022-09-12T15:15:21.937Z,155.25
2022-09-12T15:17:50.019Z,160.20
2022-09-12T15:20:20.897Z,157.70
2022-09-12T15:22:49.086Z,157.35
2022-09-12T15:25:20.119Z,172.80
2022-09-12T15:27:48.834Z,177.07
2022-09-12T15:30:16.971Z,147.68
2022-09-12T15:32:50.209Z,163.75
2022-09-12T15:35:24.388Z,150.23
2022-09-12T15:37:52.765Z,150.52
2022-09-12T15:40:20.822Z,149.95
2022-09-12T15:42:48.922Z,154.93
2022-09-12T15:45:19.775Z,166.40
2022-09-12T15:47:47.805Z,136.77
2022-09-12T15:50:16.337Z,157.73
2022-09-12T15:52:44.406Z,172.18
2022-09-12T15:55:24.308Z,169.27
2022-09-12T15:57:52.674Z,148.88
2022-09-12T16:00:20.965Z,150.60
2022-09-12T16:02:52.130Z,150.77
2022-09-12T16:05:24.507Z,147.52
2022-09-12T16:07:55.899Z,160.10
2022-09-12T16:10:26.808Z,141.63
2022-09-12T16:12:57.561Z,133.23
2022-09-12T16:15:29.083Z,139.52
2022-09-12T16:17:57.134Z,158.82
2022-09-12T16:20:27.825Z,141.77
2022-09-12T16:22:58.508Z,140.75
2022-09-12T16:25:26.577Z,140.90
2022-09-12T16:27:54.760Z,142.75
2022-09-12T16:30:22.988Z,130.63
2022-09-12T16:32:52.985Z,138.75
2022-09-12T16:35:21.077Z,146.95
2022-09-12T16:37:49.088Z,153.75
2022-09-12T16:40:17.569Z,143.35
2022-09-12T16:42:48.732Z,144.73
2022-09-12T16:45:17.080Z,136.07
2022-09-12T16:47:45.371Z,134.57
2022-09-12T16:50:13.424Z,156.02
2022-09-12T16:52:41.519Z,149.88
2022-09-12T16:55:10.872Z,142.95
2022-09-12T16:57:38.866Z,141.63
2022-09-12T17:00:07.653Z,134.05
2022-09-12T17:02:35.791Z,156.30
2022-09-12T17:05:04.383Z,149.27
2022-09-12T17:07:37.601Z,151.55
2022-09-12T17:10:05.931Z,140.77
2022-09-12T17:12:33.997Z,151.57
2022-09-12T17:15:04.568Z,147.15
2022-09-12T17:17:32.559Z,131.82
2022-09-12T17:20:00.613Z,146.88
2022-09-12T17:22:32.569Z,150.57
2022-09-12T17:25:01.794Z,147.82
2022-09-12T17:27:29.849Z,148.32
2022-09-12T17:29:57.883Z,140.40
2022-09-12T17:32:25.954Z,139.48
2022-09-12T17:34:54.099Z,144.32
2022-09-12T17:37:24.718Z,136.55
2022-09-12T17:39:55.125Z,141.40
2022-09-12T17:42:23.215Z,140.20
2022-09-12T17:44:54.128Z,157.52
2022-09-12T17:47:22.161Z,133.50
2022-09-12T17:49:50.161Z,134.05
2022-09-12T17:52:18.170Z,135.35
2022-09-12T17:54:46.248Z,134.27
2022-09-12T17:57:14.273Z,141.93
2022-09-12T17:59:42.326Z,134.32
2022-09-12T18:02:13.850Z,134.88
2022-09-12T18:04:46.006Z,137.55
2022-09-12T18:07:17.988Z,151.95
2022-09-12T18:09:46.561Z,149.05
2022-09-12T18:12:15.970Z,138.13
2022-09-12T18:14:44.102Z,139.05
2022-09-12T18:17:12.170Z,152.02
2022-09-12T18:19:40.231Z,142.88
2022-09-12T18:22:08.268Z,138.00
2022-09-12T18:24:36.900Z,131.00
2022-09-12T18:27:05.132Z,146.45
2022-09-12T18:29:33.284Z,135.95
2022-09-12T18:32:01.319Z,138.27
2022-09-12T18:34:32.325Z,142.88
2022-09-12T18:37:00.383Z,141.38
2022-09-12T18:39:28.414Z,140.23
2022-09-12T18:41:56.520Z,143.02
2022-09-12T18:44:24.621Z,158.10
2022-09-12T18:46:52.679Z,145.40
2022-09-12T18:49:20.874Z,150.95
2022-09-12T18:51:48.936Z,140.20
2022-09-12T18:54:16.956Z,151.02
2022-09-12T18:56:44.962Z,156.32
2022-09-12T18:59:13.050Z,144.40
2022-09-12T19:01:42.211Z,141.43
2022-09-12T19:04:12.269Z,148.25
2022-09-12T19:06:42.786Z,150.70
2022-09-12T19:09:12.530Z,145.93
2022-09-12T19:11:43.384Z,149.27
2022-09-12T19:14:11.406Z,145.57
2022-09-12T19:16:39.459Z,141.60
2022-09-12T19:19:07.504Z,143.75
2022-09-12T19:21:35.861Z,146.77
2022-09-12T19:24:07.157Z,187.93
2022-09-12T19:26:35.616Z,136.57
2022-09-12T19:29:06.628Z,142.18
2022-09-12T19:31:34.841Z,137.48
2022-09-12T19:34:08.739Z,151.20
2022-09-12T19:36:46.270Z,150.50
2022-09-12T19:39:16.607Z,152.40
2022-09-12T19:41:46.994Z,143.90
2022-09-12T19:44:15.090Z,143.60
2022-09-12T19:46:43.395Z,148.23
2022-09-12T19:49:12.699Z,150.40
2022-09-12T19:51:44.181Z,137.68
2022-09-12T19:54:14.481Z,138.88
2022-09-12T19:56:42.667Z,150.77
2022-09-12T19:59:10.809Z,136.20
2022-09-12T20:01:41.500Z,136.50
2022-09-12T20:04:12.531Z,136.95
2022-09-12T20:06:42.911Z,142.43
2022-09-12T20:09:13.815Z,140.45
2022-09-12T20:11:41.871Z,159.73
2022-09-12T20:14:09.862Z,152.10
2022-09-12T20:16:40.899Z,153.77
2022-09-12T20:19:12.159Z,159.15
2022-09-12T20:21:42.545Z,153.55
2022-09-12T20:24:17.361Z,148.35
2022-09-12T20:26:45.992Z,144.00
2022-09-12T20:29:14.053Z,146.98
2022-09-12T20:31:45.390Z,139.18
2022-09-12T20:34:18.714Z,156.45
2022-09-12T20:36:47.052Z,144.07
2022-09-12T20:39:18.214Z,145.35
2022-09-12T20:41:46.400Z,143.52
2022-09-12T20:44:15.155Z,144.00
2022-09-12T20:46:43.541Z,141.05
2022-09-12T20:49:11.649Z,143.43
2022-09-12T20:51:40.458Z,146.43
2022-09-12T20:54:08.628Z,149.75
2022-09-12T20:56:38.089Z,142.82
2022-09-12T20:59:06.579Z,140.32
2022-09-12T21:01:37.300Z,153.02
2022-09-12T21:04:05.698Z,149.52
2022-09-12T21:06:33.682Z,154.35
2022-09-12T21:09:04.875Z,151.95
2022-09-12T21:11:32.940Z,146.07
2022-09-12T21:14:01.026Z,145.35
2022-09-12T21:16:31.475Z,147.93
2022-09-12T21:19:00.476Z,147.50
2022-09-12T21:21:28.766Z,151.88
2022-09-12T21:24:03.276Z,137.98
2022-09-12T21:26:32.027Z,153.07
2022-09-12T21:29:00.098Z,158.38
2022-09-12T21:31:28.180Z,146.40
2022-09-12T21:33:56.303Z,170.02
2022-09-12T21:36:25.352Z,146.55
2022-09-12T21:38:53.351Z,175.23
2022-09-12T21:41:21.411Z,150.48
2022-09-12T21:43:49.535Z,148.60
2022-09-12T21:46:20.286Z,149.85
2022-09-12T21:48:48.417Z,140.88
2022-09-12T21:51:19.004Z,162.65
2022-09-12T21:53:47.610Z,152.45
2022-09-12T21:56:15.759Z,155.48
2022-09-12T21:58:46.420Z,155.30
2022-09-12T22:01:17.552Z,156.23
2022-09-12T22:03:45.622Z,169.68
2022-09-12T22:06:13.723Z,155.98
2022-09-12T22:08:41.806Z,164.23
2022-09-12T22:11:10.627Z,179.98
2022-09-12T22:13:43.421Z,150.52
2022-09-12T22:16:12.384Z,151.27
2022-09-12T22:18:40.465Z,167.57
2022-09-12T22:21:12.149Z,151.95
2022-09-12T22:23:40.267Z,170.35
2022-09-12T22:26:11.017Z,180.85
2022-09-12T22:28:39.127Z,176.88
2022-09-12T22:31:07.335Z,159.90
2022-09-12T22:33:35.432Z,148.68
2022-09-12T22:36:06.064Z,163.35
2022-09-12T22:38:37.019Z,150.80
2022-09-12T22:41:10.251Z,149.57
2022-09-12T22:43:38.823Z,163.80
2022-09-12T22:46:11.267Z,154.88
2022-09-12T22:48:42.196Z,158.57
2022-09-12T22:51:10.855Z,166.43
2022-09-12T22:53:39.105Z,171.32
2022-09-12T22:56:08.130Z,258.58
2022-09-12T22:58:37.333Z,158.00
2022-09-12T23:01:08.645Z,196.30
2022-09-12T23:03:39.142Z,166.57
2022-09-12T23:06:08.040Z,181.23
2022-09-12T23:08:37.144Z,173.35
2022-09-12T23:11:11.733Z,163.05
2022-09-12T23:13:42.145Z,182.20
2022-09-12T23:16:18.690Z,160.73
2022-09-12T23:18:52.924Z,159.40
2022-09-12T23:21:22.179Z,151.45
2022-09-12T23:23:51.064Z,163.57
2022-09-12T23:26:19.120Z,161.65
2022-09-12T23:28:52.616Z,139.30
2022-09-12T23:31:24.980Z,144.55
2022-09-12T23:33:57.277Z,148.13
2022-09-12T23:36:26.867Z,151.30
2022-09-12T23:38:55.924Z,145.68
2022-09-12T23:41:24.652Z,138.50
2022-09-12T23:43:52.936Z,131.70
2022-09-12T23:46:23.635Z,146.63
2022-09-12T23:48:51.881Z,133.95
2022-09-12T23:51:22.380Z,137.68
2022-09-12T23:53:52.941Z,138.98
2022-09-12T23:56:20.980Z,132.93
2022-09-12T23:58:49.476Z,128.05
